Time;durP1;ratioP1;P1;durP2;ratioP2;P2;SDS_P1;SDS_P2;PMS_P1;PMS_P2;Temp;Humidity;BMP_temperature;BMP_pressure;BME280_temperature;BME280_humidity;BME280_pressure;Samples;Min_cycle;Max_cycle;Signal;HPM_P1;HPM_P2
2022/05/06 00:01:37;;;;;;;20.03;17.50;;;13.10;99.90;;;;;;4955726;28;20181;-66
2022/05/06 00:04:04;;;;;;;22.40;18.67;;;13.10;99.90;;;;;;4955417;29;20176;-66
2022/05/06 00:06:30;;;;;;;23.70;19.47;;;13.10;99.90;;;;;;4955378;29;20432;-67
2022/05/06 00:08:57;;;;;;;23.40;20.90;;;13.10;99.90;;;;;;4937636;29;20475;-67
2022/05/06 00:11:23;;;;;;;22.80;18.90;;;13.00;99.90;;;;;;4955317;29;20424;-67
2022/05/06 00:13:52;;;;;;;30.13;19.17;;;13.00;99.90;;;;;;4955099;28;20515;-67
2022/05/06 00:16:21;;;;;;;27.43;19.17;;;13.00;99.90;;;;;;4955244;29;20452;-67
2022/05/06 00:18:47;;;;;;;21.57;18.23;;;13.00;99.90;;;;;;4954993;28;20860;-67
2022/05/06 00:21:12;;;;;;;19.30;17.40;;;13.00;99.90;;;;;;4955068;29;20433;-67
2022/05/06 00:23:38;;;;;;;21.93;19.43;;;13.00;99.90;;;;;;4955046;29;20174;-67
2022/05/06 00:26:03;;;;;;;20.70;16.67;;;13.10;99.90;;;;;;4954306;28;20180;-67
2022/05/06 00:28:30;;;;;;;22.03;17.10;;;13.10;99.90;;;;;;4954209;28;20220;-67
2022/05/06 00:30:56;;;;;;;20.83;17.63;;;13.10;99.90;;;;;;4954960;29;20335;-66
2022/05/06 00:33:24;;;;;;;23.93;17.70;;;13.10;99.90;;;;;;4954902;29;20417;-66
2022/05/06 00:36:00;;;;;;;19.80;17.63;;;13.20;99.90;;;;;;4954802;29;20952;-67
2022/05/06 00:38:27;;;;;;;23.10;18.13;;;13.20;99.90;;;;;;4954444;28;20436;-67
2022/05/06 00:40:53;;;;;;;25.10;18.00;;;13.10;99.90;;;;;;4937537;29;20436;-66
2022/05/06 00:43:20;;;;;;;18.13;16.30;;;13.10;99.90;;;;;;4954719;29;20978;-67
2022/05/06 00:45:53;;;;;;;22.20;17.73;;;13.10;99.90;;;;;;4954688;29;20898;-67
2022/05/06 00:48:26;;;;;;;19.70;17.60;;;13.00;99.90;;;;;;4954357;28;20878;-66
2022/05/06 00:50:53;;;;;;;19.97;17.93;;;13.00;99.90;;;;;;4954554;29;20521;-67
2022/05/06 00:53:19;;;;;;;18.80;16.73;;;13.00;99.90;;;;;;4954399;29;20421;-66
2022/05/06 00:55:44;;;;;;;19.83;15.70;;;13.10;99.90;;;;;;4954475;29;20443;-66
2022/05/06 00:58:10;;;;;;;19.73;16.50;;;13.10;99.90;;;;;;4954170;28;20197;-67
2022/05/06 01:00:36;;;;;;;17.33;15.50;;;13.10;99.90;;;;;;4954513;29;20176;-66
2022/05/06 01:03:01;;;;;;;22.57;16.40;;;13.10;99.90;;;;;;4954470;29;20185;-67
2022/05/06 01:05:27;;;;;;;20.63;18.43;;;13.20;99.90;;;;;;4954378;29;21090;-67
2022/05/06 01:07:53;;;;;;;23.10;20.70;;;13.20;99.90;;;;;;4954010;28;20200;-66
2022/05/06 01:10:21;;;;;;;23.40;20.13;;;13.20;99.90;;;;;;4954054;29;20973;-67
2022/05/06 01:12:48;;;;;;;23.10;19.20;;;13.10;99.90;;;;;;4954422;29;20179;-66
2022/05/06 01:15:18;;;;;;;22.17;19.90;;;13.10;99.90;;;;;;4954277;28;20812;-67
2022/05/06 01:17:44;;;;;;;28.73;19.77;;;13.10;99.90;;;;;;4954044;28;20479;-66
2022/05/06 01:20:11;;;;;;;23.37;20.90;;;13.10;99.90;;;;;;4953855;29;21044;-67
2022/05/06 01:22:38;;;;;;;26.93;21.37;;;13.10;99.90;;;;;;4954064;29;20686;-67
2022/05/06 01:25:04;;;;;;;23.10;20.67;;;13.10;99.90;;;;;;4954056;29;20420;-66
2022/05/06 01:27:34;;;;;;;20.03;17.87;;;13.10;99.90;;;;;;4953821;28;20460;-67
2022/05/06 01:30:04;;;;;;;22.50;17.90;;;13.10;99.90;;;;;;4953870;29;20492;-67
2022/05/06 01:32:30;;;;;;;20.90;18.60;;;13.00;99.90;;;;;;4954043;29;20843;-67
2022/05/06 01:34:58;;;;;;;23.53;18.07;;;13.00;99.90;;;;;;4953882;29;20423;-67
2022/05/06 01:37:27;;;;;;;23.37;18.37;;;13.00;99.90;;;;;;4954012;28;20424;-67
2022/05/06 01:39:58;;;;;;;21.17;18.97;;;13.00;99.90;;;;;;4936654;29;20455;-66
2022/05/06 01:42:24;;;;;;;20.80;18.17;;;13.00;99.90;;;;;;4953976;29;20424;-67
2022/05/06 01:44:53;;;;;;;22.27;19.83;;;12.90;99.90;;;;;;4953901;29;20435;-67
2022/05/06 01:47:23;;;;;;;19.80;17.77;;;12.90;99.90;;;;;;4953748;28;20520;-67
2022/05/06 01:49:50;;;;;;;22.80;20.30;;;12.90;99.90;;;;;;4953521;28;20409;-67
2022/05/06 01:52:17;;;;;;;21.53;19.37;;;13.00;99.90;;;;;;4953797;29;20420;-66
2022/05/06 01:54:43;;;;;;;28.63;22.93;;;13.00;99.90;;;;;;4953818;29;20417;-67
2022/05/06 01:57:08;;;;;;;22.27;19.87;;;13.00;99.90;;;;;;4953889;29;20425;-67
2022/05/06 01:59:34;;;;;;;27.23;21.93;;;13.10;99.90;;;;;;4953412;28;20197;-67
2022/05/06 02:01:59;;;;;;;24.57;20.90;;;13.00;99.90;;;;;;4953703;28;20173;-66
2022/05/06 02:07:09;;;;;;;28.40;20.97;;;13.00;99.90;;;;;;4953946;28;20248;-66
2022/05/06 02:09:35;;;;;;;22.80;19.53;;;12.90;99.90;;;;;;4953287;28;20495;-67
2022/05/06 02:12:01;;;;;;;23.10;20.20;;;12.90;99.90;;;;;;4953823;29;20421;-67
2022/05/06 02:14:27;;;;;;;21.03;18.80;;;12.90;99.90;;;;;;4953558;29;20417;-67
2022/05/06 02:16:53;;;;;;;26.90;19.10;;;12.90;99.90;;;;;;4953673;29;20424;-66
2022/05/06 02:19:18;;;;;;;25.50;20.37;;;12.90;99.90;;;;;;4953269;28;20436;-67
2022/05/06 02:21:44;;;;;;;21.97;19.13;;;13.00;99.90;;;;;;4953619;29;20239;-66
2022/05/06 02:24:10;;;;;;;22.43;18.60;;;13.00;99.90;;;;;;4953568;29;20230;-67
2022/05/06 02:26:36;;;;;;;21.13;19.07;;;13.00;99.90;;;;;;4953562;29;20176;-66
2022/05/06 02:29:02;;;;;;;22.70;20.33;;;12.90;99.90;;;;;;4952885;28;20855;-67
2022/05/06 02:34:16;;;;;;;24.00;20.97;;;12.80;99.90;;;;;;4953529;29;20239;-66
2022/05/06 02:36:43;;;;;;;24.93;21.80;;;12.90;99.90;;;;;;4953516;29;20427;-67
2022/05/06 02:39:08;;;;;;;22.47;20.00;;;12.90;99.90;;;;;;4953039;28;20448;-66
2022/05/06 02:41:34;;;;;;;21.90;19.17;;;13.00;99.90;;;;;;4953370;29;20435;-69
2022/05/06 02:44:02;;;;;;;23.50;21.10;;;12.90;99.90;;;;;;4953296;29;20181;-68
2022/05/06 02:46:27;;;;;;;25.90;22.90;;;12.90;99.90;;;;;;4953345;29;20181;-67
2022/05/06 02:48:53;;;;;;;22.30;17.60;;;12.90;99.90;;;;;;4952846;28;20476;-67
2022/05/06 02:51:18;;;;;;;21.77;19.27;;;12.90;99.90;;;;;;4956433;29;20235;-68
2022/05/06 02:53:44;;;;;;;22.47;18.30;;;12.80;99.90;;;;;;4956732;29;20173;-67
2022/05/06 02:56:09;;;;;;;24.53;19.53;;;12.70;99.90;;;;;;4957205;29;20172;-70
2022/05/06 02:58:35;;;;;;;23.53;18.60;;;12.70;99.90;;;;;;4956208;28;20204;-70
2022/05/06 03:01:00;;;;;;;22.40;19.80;;;12.70;99.90;;;;;;4956661;29;20177;-69
2022/05/06 03:03:26;;;;;;;20.57;17.83;;;12.70;99.90;;;;;;4939371;29;20826;-69
2022/05/06 03:05:51;;;;;;;29.37;19.00;;;12.70;99.90;;;;;;4956550;29;20547;-70
2022/05/06 03:08:17;;;;;;;24.23;19.13;;;12.70;99.90;;;;;;4956475;28;20247;-70
2022/05/06 03:10:43;;;;;;;20.80;18.63;;;12.60;99.90;;;;;;4956387;29;20183;-68
2022/05/06 03:13:08;;;;;;;19.60;17.43;;;12.70;99.90;;;;;;4956373;29;20173;-70
2022/05/06 03:15:35;;;;;;;21.97;19.17;;;12.70;99.90;;;;;;4956371;29;20188;-69
2022/05/06 03:18:00;;;;;;;19.10;17.07;;;12.70;99.90;;;;;;4956355;28;20197;-69
2022/05/06 03:20:26;;;;;;;26.47;19.90;;;12.70;99.90;;;;;;4955914;29;20483;-70
2022/05/06 03:22:53;;;;;;;21.17;17.70;;;12.70;99.90;;;;;;4956233;29;20177;-71
2022/05/06 03:25:20;;;;;;;19.87;17.67;;;12.70;99.90;;;;;;4956326;28;20930;-69
2022/05/06 03:28:07;;;;;;;22.50;19.47;;;12.80;99.90;;;;;;4955902;28;20884;-68
2022/05/06 03:30:40;;;;;;;21.13;18.77;;;12.80;99.90;;;;;;4955896;28;20428;-68
2022/05/06 03:33:10;;;;;;;21.17;18.97;;;12.80;99.90;;;;;;4956113;29;20432;-68
2022/05/06 03:35:37;;;;;;;19.57;17.50;;;12.80;99.90;;;;;;4955904;29;20439;-70
2022/05/06 03:38:03;;;;;;;19.70;17.60;;;12.80;99.90;;;;;;4955804;28;20873;-67
2022/05/06 03:40:29;;;;;;;19.70;17.60;;;12.80;99.90;;;;;;4955810;29;20918;-71
2022/05/06 03:42:54;;;;;;;23.23;16.70;;;12.80;99.90;;;;;;4955895;29;20437;-69
2022/05/06 03:45:20;;;;;;;20.10;17.73;;;12.80;99.90;;;;;;4955721;29;20185;-71
2022/05/06 03:47:45;;;;;;;19.57;17.50;;;12.80;99.90;;;;;;4955564;28;20296;-70
2022/05/06 03:52:55;;;;;;;20.37;17.20;;;12.80;99.90;;;;;;4955995;29;20240;-69
2022/05/06 03:55:22;;;;;;;19.80;17.07;;;12.70;99.90;;;;;;4955669;29;20824;-70
2022/05/06 03:57:47;;;;;;;19.40;16.10;;;12.70;99.90;;;;;;4955420;28;20659;-68
2022/05/06 04:00:14;;;;;;;20.37;16.57;;;12.70;99.90;;;;;;4955143;28;20439;-70
2022/05/06 04:02:40;;;;;;;16.50;14.80;;;12.60;99.90;;;;;;4955400;29;20232;-69
2022/05/06 04:05:07;;;;;;;17.43;15.73;;;12.60;99.90;;;;;;4955311;28;20427;-70
2022/05/06 04:07:33;;;;;;;17.60;15.83;;;12.70;99.90;;;;;;4955216;28;20469;-70
2022/05/06 04:09:58;;;;;;;19.80;16.30;;;12.70;99.90;;;;;;4955087;29;20433;-71
2022/05/06 04:12:24;;;;;;;19.97;17.80;;;12.70;99.90;;;;;;4955254;28;20177;-70
2022/05/06 04:14:50;;;;;;;18.50;16.73;;;12.70;99.90;;;;;;4955250;29;20569;-70
2022/05/06 04:17:16;;;;;;;18.10;16.27;;;12.70;99.90;;;;;;4955097;28;20161;-70
2022/05/06 04:23:28;;;;;;;20.80;15.70;;;12.60;99.90;;;;;;4954729;28;20413;-70
2022/05/06 04:25:16;;;;;;;17.87;15.97;;;12.60;99.90;;;;;;4955236;29;20435;-69
2022/05/06 04:27:42;;;;;;;18.97;15.90;;;12.60;99.90;;;;;;4954776;28;20475;-71
2022/05/06 04:30:09;;;;;;;17.60;15.57;;;12.60;99.90;;;;;;4954574;28;20177;-71
2022/05/06 04:32:34;;;;;;;18.87;16.90;;;12.60;99.90;;;;;;4954814;29;20480;-70
2022/05/06 04:35:04;;;;;;;17.47;15.77;;;12.60;99.90;;;;;;4954935;29;20454;-69
2022/05/06 04:37:29;;;;;;;20.33;18.33;;;12.60;99.90;;;;;;4954859;28;20179;-69
2022/05/06 04:39:55;;;;;;;18.20;16.30;;;12.60;99.90;;;;;;4954450;29;20424;-69
2022/05/06 04:42:21;;;;;;;19.43;16.47;;;12.60;99.90;;;;;;4954746;29;20176;-70
2022/05/06 04:44:46;;;;;;;18.07;16.40;;;12.60;99.90;;;;;;4954768;28;20248;-69
2022/05/06 04:47:12;;;;;;;17.70;15.90;;;12.60;99.90;;;;;;4954701;29;20231;-70
2022/05/06 04:49:37;;;;;;;18.77;17.00;;;12.60;99.90;;;;;;4953593;28;20240;-70
2022/05/06 04:52:03;;;;;;;19.80;17.80;;;12.60;99.90;;;;;;4954591;29;20177;-70
2022/05/06 04:54:28;;;;;;;20.50;17.90;;;12.60;99.90;;;;;;4954556;29;20181;-69
2022/05/06 04:56:54;;;;;;;18.67;16.70;;;12.50;99.90;;;;;;4954550;29;20639;-70
2022/05/06 04:59:22;;;;;;;18.07;16.17;;;12.50;99.90;;;;;;4954108;28;20192;-70
2022/05/06 05:01:48;;;;;;;21.00;18.17;;;12.50;99.90;;;;;;4954593;29;20227;-70
2022/05/06 05:04:13;;;;;;;19.80;17.60;;;12.50;99.90;;;;;;4954433;29;20428;-69
2022/05/06 05:06:39;;;;;;;18.13;16.53;;;12.50;99.90;;;;;;4954374;29;21006;-70
2022/05/06 05:09:04;;;;;;;20.57;17.60;;;12.50;99.90;;;;;;4953925;28;20287;-70
2022/05/06 05:11:30;;;;;;;19.37;17.47;;;12.50;99.90;;;;;;4954367;29;20260;-69
2022/05/06 05:13:55;;;;;;;19.87;17.90;;;12.50;99.90;;;;;;4953789;28;20173;-69
2022/05/06 05:16:21;;;;;;;18.97;16.83;;;12.50;99.90;;;;;;4954147;29;20165;-70
2022/05/06 05:18:46;;;;;;;19.23;15.60;;;12.50;99.90;;;;;;4953939;28;20603;-70
2022/05/06 05:21:12;;;;;;;21.70;17.63;;;12.60;99.90;;;;;;4954348;29;20537;-71
2022/05/06 05:23:38;;;;;;;18.70;16.70;;;12.60;99.90;;;;;;4954598;29;20169;-71
2022/05/06 05:26:03;;;;;;;18.20;16.40;;;12.60;99.90;;;;;;4954302;29;20188;-70
2022/05/06 05:28:29;;;;;;;19.53;17.27;;;12.60;99.90;;;;;;4953446;28;20213;-70
2022/05/06 05:30:54;;;;;;;18.70;16.70;;;12.70;99.90;;;;;;4954050;29;20259;-70
2022/05/06 05:33:20;;;;;;;15.90;14.27;;;12.80;99.90;;;;;;4954241;29;20172;-70
2022/05/06 05:35:45;;;;;;;16.20;14.60;;;12.80;99.90;;;;;;4953910;29;20529;-68
2022/05/06 05:38:11;;;;;;;16.80;15.20;;;12.80;99.90;;;;;;4953747;28;20193;-68
2022/05/06 05:40:36;;;;;;;18.40;16.60;;;12.90;99.90;;;;;;4953996;29;20188;-67
2022/05/06 05:43:03;;;;;;;17.60;15.90;;;12.90;99.90;;;;;;4953882;29;20179;-70
2022/05/06 05:48:22;;;;;;;17.17;15.47;;;12.80;99.90;;;;;;4953460;28;20918;-70
2022/05/06 05:50:48;;;;;;;17.67;15.83;;;12.80;99.90;;;;;;4953407;29;20444;-70
2022/05/06 05:53:14;;;;;;;18.67;16.07;;;12.70;99.90;;;;;;4953756;29;20431;-67
2022/05/06 05:55:39;;;;;;;15.57;14.17;;;12.70;99.90;;;;;;4953808;29;20919;-68
2022/05/06 05:58:05;;;;;;;16.93;15.23;;;12.60;99.90;;;;;;4953630;28;20203;-70
2022/05/06 06:00:31;;;;;;;16.40;14.70;;;12.50;99.90;;;;;;4953471;29;20181;-69
2022/05/06 06:02:56;;;;;;;16.33;14.70;;;12.40;99.90;;;;;;4953738;29;20260;-70
2022/05/06 06:05:23;;;;;;;17.43;15.73;;;12.40;99.90;;;;;;4953662;29;20203;-70
2022/05/06 06:07:49;;;;;;;18.37;16.40;;;12.40;99.90;;;;;;4953436;28;20277;-67
2022/05/06 06:10:14;;;;;;;19.37;16.77;;;12.40;99.90;;;;;;4953381;29;20425;-69
2022/05/06 06:12:40;;;;;;;19.07;17.17;;;12.40;99.90;;;;;;4953817;29;20173;-68
2022/05/06 06:15:07;;;;;;;20.10;16.63;;;12.30;99.90;;;;;;4953541;29;20310;-68
2022/05/06 06:17:33;;;;;;;19.20;17.20;;;12.30;99.90;;;;;;4953642;28;20177;-70
2022/05/06 06:19:59;;;;;;;16.67;15.10;;;12.40;99.90;;;;;;4953316;29;20423;-68
2022/05/06 06:22:24;;;;;;;17.70;15.80;;;12.40;99.90;;;;;;4953478;28;20173;-68
2022/05/06 06:24:50;;;;;;;17.03;15.43;;;12.50;99.90;;;;;;4954518;28;20211;-68
2022/05/06 06:27:15;;;;;;;21.40;17.23;;;12.50;99.90;;;;;;4957029;28;20231;-68
2022/05/06 06:29:41;;;;;;;19.93;16.20;;;12.60;99.90;;;;;;4956910;29;20257;-70
2022/05/06 06:32:07;;;;;;;21.03;16.60;;;12.60;99.90;;;;;;4957098;29;20177;-68
2022/05/06 06:34:33;;;;;;;20.37;18.13;;;12.60;99.90;;;;;;4957093;28;20173;-67
2022/05/06 06:36:58;;;;;;;21.00;16.70;;;12.60;99.90;;;;;;4957011;29;20938;-71
2022/05/06 06:39:24;;;;;;;17.73;15.80;;;12.60;99.90;;;;;;4956733;28;20201;-68
2022/05/06 06:41:49;;;;;;;19.80;16.63;;;12.70;99.90;;;;;;4957105;29;20177;-66
2022/05/06 06:44:15;;;;;;;16.67;15.17;;;12.70;99.90;;;;;;4956856;29;20597;-68
2022/05/06 06:46:40;;;;;;;19.07;17.27;;;12.80;99.90;;;;;;4956929;29;20267;-70
2022/05/06 06:49:06;;;;;;;21.43;19.10;;;12.80;99.90;;;;;;4955754;28;20213;-70
2022/05/06 06:51:31;;;;;;;19.13;17.17;;;12.90;99.90;;;;;;4956794;29;20519;-71
2022/05/06 06:53:58;;;;;;;21.67;15.80;;;12.90;99.90;;;;;;4956784;29;20172;-70
2022/05/06 06:56:23;;;;;;;20.33;17.90;;;12.90;99.90;;;;;;4956817;29;20436;-69
2022/05/06 06:58:49;;;;;;;16.53;14.83;;;12.90;99.90;;;;;;4956231;28;20958;-69
2022/05/06 07:01:15;;;;;;;17.10;15.40;;;12.80;99.90;;;;;;4956595;29;20371;-71
2022/05/06 07:03:40;;;;;;;17.00;15.40;;;12.80;99.90;;;;;;4956555;29;20173;-69
2022/05/06 07:11:52;;;;;;;16.87;15.10;;;12.80;99.90;;;;;;4956950;29;20431;-70
2022/05/06 07:14:18;;;;;;;17.90;15.70;;;12.90;99.90;;;;;;4956280;29;20514;-70
2022/05/06 07:16:43;;;;;;;17.50;15.37;;;12.90;99.90;;;;;;4956419;29;20448;-70
2022/05/06 07:19:09;;;;;;;15.30;13.70;;;13.00;99.90;;;;;;4956055;28;20201;-70
2022/05/06 07:21:35;;;;;;;16.50;15.00;;;13.00;99.90;;;;;;4956298;29;20177;-70
2022/05/06 07:24:01;;;;;;;17.27;14.63;;;13.00;99.90;;;;;;4956207;29;20176;-70
2022/05/06 07:26:27;;;;;;;16.20;14.00;;;13.10;99.90;;;;;;4956126;28;20420;-70
2022/05/06 07:28:53;;;;;;;15.90;14.27;;;13.10;99.90;;;;;;4955513;28;20213;-70
2022/05/06 07:31:18;;;;;;;18.00;13.10;;;13.20;99.90;;;;;;4956253;29;20421;-70
2022/05/06 07:33:44;;;;;;;14.27;12.80;;;13.20;99.90;;;;;;4956106;29;20173;-69
2022/05/06 07:36:09;;;;;;;16.37;13.70;;;13.20;99.90;;;;;;4955851;28;20177;-70
2022/05/06 07:38:35;;;;;;;17.87;15.00;;;13.20;99.90;;;;;;4955737;28;20685;-69
2022/05/06 07:41:03;;;;;;;14.63;13.33;;;13.30;99.90;;;;;;4955857;29;20177;-70
2022/05/06 07:43:29;;;;;;;16.60;13.50;;;13.30;99.90;;;;;;4955810;29;20652;-69
2022/05/06 07:45:55;;;;;;;16.13;14.10;;;13.30;99.90;;;;;;4955779;29;20435;-70
2022/05/06 07:48:20;;;;;;;15.63;13.77;;;13.30;99.90;;;;;;4955352;28;20997;-70
2022/05/06 07:50:46;;;;;;;15.33;13.93;;;13.30;99.90;;;;;;4955754;29;20175;-70
2022/05/06 07:53:13;;;;;;;13.47;12.20;;;13.40;99.90;;;;;;4955706;29;20609;-69
2022/05/06 07:55:39;;;;;;;13.77;12.23;;;13.40;99.90;;;;;;4955617;29;20548;-69
2022/05/06 07:58:05;;;;;;;12.60;11.50;;;13.50;99.90;;;;;;4955402;28;20440;-70
2022/05/06 08:00:31;;;;;;;12.93;11.77;;;13.50;99.90;;;;;;4955325;29;20965;-69
2022/05/06 08:05:43;;;;;;;13.00;11.80;;;13.40;99.90;;;;;;4955713;29;20436;-70
2022/05/06 08:08:08;;;;;;;14.30;12.90;;;13.50;99.90;;;;;;4955041;28;20475;-69
2022/05/06 08:10:34;;;;;;;13.83;11.80;;;13.50;99.90;;;;;;4955430;29;20416;-70
2022/05/06 08:13:01;;;;;;;12.73;11.47;;;13.50;99.90;;;;;;4955291;29;20169;-70
2022/05/06 08:15:27;;;;;;;11.97;10.77;;;13.50;99.90;;;;;;4955613;29;20706;-70
2022/05/06 08:17:53;;;;;;;13.17;10.43;;;13.50;99.90;;;;;;4955205;28;20452;-69
2022/05/06 08:20:18;;;;;;;13.90;12.60;;;13.40;99.90;;;;;;4955023;29;20184;-69
2022/05/06 08:22:44;;;;;;;12.20;11.00;;;13.50;99.90;;;;;;4955089;29;20176;-69
2022/05/06 08:25:09;;;;;;;13.70;11.20;;;13.60;99.90;;;;;;4955251;28;20185;-71
2022/05/06 08:27:39;;;;;;;11.97;10.77;;;13.80;99.90;;;;;;4954774;28;20224;-70
2022/05/06 08:30:06;;;;;;;12.03;11.03;;;13.80;99.90;;;;;;4954658;29;20548;-69
2022/05/06 08:32:33;;;;;;;12.43;11.13;;;14.00;99.90;;;;;;4955003;29;20503;-71
2022/05/06 08:34:58;;;;;;;12.00;11.03;;;14.20;99.90;;;;;;4955321;29;20416;-70
2022/05/06 08:37:25;;;;;;;10.03;9.20;;;14.40;99.90;;;;;;4954758;28;20416;-69
2022/05/06 08:39:51;;;;;;;10.57;9.63;;;14.40;99.90;;;;;;4954761;29;20169;-70
2022/05/06 08:42:20;;;;;;;11.93;10.93;;;14.50;99.90;;;;;;4954667;29;20428;-69
2022/05/06 08:53:05;;;;;;;10.80;9.77;;;14.70;99.90;;;;;;4954611;29;20431;-70
2022/05/06 08:55:34;;;;;;;17.33;13.00;;;14.80;99.90;;;;;;4955150;29;20415;-70
2022/05/06 08:58:00;;;;;;;11.60;10.47;;;14.60;99.90;;;;;;4954776;28;20451;-70
2022/05/06 09:00:26;;;;;;;10.97;9.97;;;14.50;99.90;;;;;;4954100;28;20914;-69
2022/05/06 09:02:52;;;;;;;12.30;10.13;;;14.40;99.90;;;;;;4954378;29;20169;-69
2022/05/06 09:05:19;;;;;;;9.60;8.80;;;14.50;99.90;;;;;;4954616;29;20424;-68
2022/05/06 09:07:55;;;;;;;11.20;10.20;;;14.60;99.90;;;;;;4954295;28;20232;-70
2022/05/06 09:10:20;;;;;;;10.50;9.53;;;14.70;99.90;;;;;;4954028;29;20784;-69
2022/05/06 09:12:46;;;;;;;10.30;9.50;;;14.70;99.90;;;;;;4954191;29;20413;-70
2022/05/06 09:17:59;;;;;;;10.50;9.60;;;14.80;99.90;;;;;;4954137;28;20455;-69
2022/05/06 09:20:26;;;;;;;10.47;9.47;;;14.70;99.90;;;;;;4953834;29;20469;-69
2022/05/06 09:22:53;;;;;;;11.40;10.30;;;14.90;99.90;;;;;;4954147;29;20439;-70
2022/05/06 09:25:34;;;;;;;14.07;12.53;;;15.00;99.90;;;;;;4953930;29;20420;-68
2022/05/06 09:28:00;;;;;;;13.03;11.73;;;15.20;99.90;;;;;;4954021;28;20503;-70
2022/05/06 09:30:26;;;;;;;10.03;9.23;;;15.50;99.90;;;;;;4953757;29;20424;-69
2022/05/06 09:32:51;;;;;;;9.70;8.80;;;15.70;99.90;;;;;;4954022;29;20197;-71
2022/05/06 09:35:18;;;;;;;11.37;9.90;;;15.60;99.90;;;;;;4954314;29;20228;-70
2022/05/06 09:37:46;;;;;;;10.40;9.40;;;15.60;99.90;;;;;;4953776;28;20733;-70
2022/05/06 09:40:18;;;;;;;10.93;9.13;;;15.70;99.90;;;;;;4953587;29;20475;-69
2022/05/06 09:42:53;;;;;;;10.67;9.43;;;15.70;99.90;;;;;;4953883;29;20511;-70
2022/05/06 09:45:33;;;;;;;10.40;9.50;;;15.90;99.90;;;;;;4953882;29;20416;-69
2022/05/06 09:48:03;;;;;;;10.87;8.90;;;16.00;99.90;;;;;;4936587;29;20464;-71
2022/05/06 09:50:40;;;;;;;10.87;9.77;;;16.20;99.90;;;;;;4954051;29;20429;-70
2022/05/06 09:53:08;;;;;;;9.37;8.53;;;16.40;99.90;;;;;;4953954;29;20503;-70
2022/05/06 09:55:36;;;;;;;9.73;8.93;;;16.60;99.90;;;;;;4953740;29;20516;-71
2022/05/06 09:58:02;;;;;;;10.60;9.60;;;16.70;99.90;;;;;;4936417;29;20453;-70
2022/05/06 10:00:28;;;;;;;10.10;9.30;;;16.60;99.90;;;;;;4957188;28;20424;-69
2022/05/06 10:02:55;;;;;;;10.77;9.67;;;16.60;99.90;;;;;;4957602;29;20450;-67
2022/05/06 10:05:21;;;;;;;9.97;8.97;;;16.40;99.90;;;;;;4957660;29;20943;-67
2022/05/06 10:07:47;;;;;;;8.50;7.77;;;16.60;99.90;;;;;;4957356;28;20456;-69
2022/05/06 10:10:20;;;;;;;12.17;8.80;;;17.00;99.90;;;;;;4957170;29;20950;-69
2022/05/06 10:12:53;;;;;;;11.23;8.63;;;17.50;99.90;;;;;;4957447;29;20444;-69
2022/05/06 10:15:23;;;;;;;9.77;8.00;;;18.20;99.90;;;;;;4957311;29;20459;-70
2022/05/06 10:17:54;;;;;;;10.10;9.40;;;19.00;99.90;;;;;;4957327;28;20860;-71
2022/05/06 10:20:37;;;;;;;10.03;7.93;;;19.40;99.90;;;;;;4957124;29;20432;-67
2022/05/06 10:23:08;;;;;;;9.97;9.07;;;19.90;99.90;;;;;;4957205;29;20938;-68
2022/05/06 10:25:42;;;;;;;9.33;7.77;;;19.90;99.90;;;;;;4957097;29;20440;-67
2022/05/06 10:34:07;;;;;;;7.67;6.97;;;20.50;99.90;;;;;;4957604;29;20428;-68
2022/05/06 10:36:49;;;;;;;10.23;8.77;;;20.90;99.90;;;;;;4957040;29;20915;-66
2022/05/06 10:39:24;;;;;;;8.67;7.87;;;21.40;99.90;;;;;;4956454;28;20432;-68
2022/05/06 10:41:58;;;;;;;8.63;7.90;;;22.00;98.80;;;;;;4956801;29;20419;-67
2022/05/06 10:44:50;;;;;;;10.30;9.40;;;22.10;98.90;;;;;;4956771;29;20416;-67
2022/05/06 10:47:15;;;;;;;8.50;7.80;;;22.10;98.90;;;;;;4956791;28;20463;-67
2022/05/06 10:49:46;;;;;;;9.57;8.70;;;22.00;98.50;;;;;;4956352;29;20903;-67
2022/05/06 10:52:20;;;;;;;9.97;8.30;;;21.70;98.80;;;;;;4956833;29;20165;-67
2022/05/06 10:54:50;;;;;;;9.47;8.67;;;21.60;98.30;;;;;;4956611;28;20424;-69
2022/05/06 10:57:19;;;;;;;8.37;7.60;;;21.20;98.90;;;;;;4956643;28;20428;-68
2022/05/06 10:59:53;;;;;;;8.93;8.13;;;21.30;99.00;;;;;;4956310;29;20439;-67
2022/05/06 11:02:26;;;;;;;9.23;8.43;;;21.40;98.80;;;;;;4956587;29;20416;-68
2022/05/06 11:04:52;;;;;;;13.33;9.63;;;21.50;98.00;;;;;;4956497;29;20424;-68
2022/05/06 11:07:18;;;;;;;9.97;8.97;;;22.10;96.80;;;;;;4956238;28;20511;-67
2022/05/06 11:09:44;;;;;;;9.43;8.47;;;23.00;95.90;;;;;;4955944;28;20555;-68
2022/05/06 11:12:09;;;;;;;8.83;8.00;;;23.90;94.80;;;;;;4955889;28;20202;-68
2022/05/06 11:14:35;;;;;;;8.63;7.93;;;24.70;91.80;;;;;;4956421;29;20481;-68
2022/05/06 11:17:22;;;;;;;7.83;6.73;;;24.90;89.50;;;;;;4956342;29;20266;-68
2022/05/06 11:19:47;;;;;;;7.73;7.00;;;25.30;87.20;;;;;;4955971;29;20169;-68
2022/05/06 11:22:13;;;;;;;7.50;6.90;;;25.90;84.70;;;;;;4956110;28;20470;-66
2022/05/06 11:24:38;;;;;;;7.37;6.77;;;25.70;81.20;;;;;;4956316;29;20279;-71
2022/05/06 11:27:17;;;;;;;8.50;7.70;;;25.40;80.90;;;;;;4956228;28;20166;-67
2022/05/06 11:29:49;;;;;;;8.70;7.90;;;25.50;77.80;;;;;;4955687;29;20208;-68
2022/05/06 11:32:15;;;;;;;7.83;7.17;;;25.40;77.90;;;;;;4955949;29;20425;-67
2022/05/06 11:34:45;;;;;;;8.07;7.33;;;25.40;77.90;;;;;;4955914;28;20428;-68
2022/05/06 11:37:19;;;;;;;7.63;6.93;;;24.90;76.70;;;;;;4956059;29;20555;-68
2022/05/06 11:39:44;;;;;;;7.03;6.47;;;25.30;76.60;;;;;;4955713;29;20500;-69
2022/05/06 11:42:22;;;;;;;9.07;8.00;;;25.40;76.70;;;;;;4956222;29;20499;-71
2022/05/06 11:47:40;;;;;;;6.97;6.37;;;24.60;77.30;;;;;;4955752;28;20475;-68
2022/05/06 11:50:06;;;;;;;9.37;7.00;;;24.60;77.70;;;;;;4954838;29;20462;-67
2022/05/06 11:52:33;;;;;;;7.27;6.67;;;24.30;78.00;;;;;;4955551;29;20682;-67
2022/05/06 11:54:59;;;;;;;8.63;7.13;;;23.50;81.00;;;;;;4955628;29;20408;-67
2022/05/06 11:57:26;;;;;;;8.67;7.80;;;23.30;79.70;;;;;;4955492;28;20435;-71
2022/05/06 11:59:51;;;;;;;9.90;8.73;;;23.20;79.70;;;;;;4955264;29;20413;-69
2022/05/06 12:02:17;;;;;;;8.97;8.07;;;22.50;80.10;;;;;;4955652;29;20486;-70
2022/05/06 12:04:43;;;;;;;8.90;8.10;;;21.90;84.20;;;;;;4955469;29;20169;-67
2022/05/06 12:07:09;;;;;;;8.67;7.87;;;21.40;85.90;;;;;;4938036;29;20196;-67
2022/05/06 12:09:43;;;;;;;8.80;6.87;;;21.20;87.50;;;;;;4954964;28;20465;-70
2022/05/06 12:12:10;;;;;;;7.83;6.73;;;21.30;89.70;;;;;;4955316;28;20166;-68
2022/05/06 12:14:37;;;;;;;9.10;7.00;;;21.40;88.40;;;;;;4955173;29;20421;-70
2022/05/06 12:17:05;;;;;;;8.13;7.33;;;21.00;88.90;;;;;;4955367;29;20903;-70
2022/05/06 12:19:37;;;;;;;8.53;7.60;;;20.90;89.80;;;;;;4955099;28;20448;-70
2022/05/06 12:22:08;;;;;;;8.10;7.40;;;21.10;89.60;;;;;;4955177;28;20421;-70
2022/05/06 12:24:47;;;;;;;9.27;8.37;;;21.20;89.30;;;;;;4954977;29;20416;-71
2022/05/06 12:27:30;;;;;;;12.50;7.90;;;21.40;88.10;;;;;;4954906;29;20423;-69
2022/05/06 12:29:57;;;;;;;7.70;6.97;;;21.70;89.50;;;;;;4954802;29;20938;-70
2022/05/06 12:32:23;;;;;;;14.63;7.90;;;22.00;88.50;;;;;;4954744;29;20428;-67
2022/05/06 12:35:09;;;;;;;11.00;6.73;;;22.70;85.10;;;;;;4954561;28;20417;-68
2022/05/06 12:37:36;;;;;;;6.73;6.23;;;23.00;85.00;;;;;;4954599;28;20891;-71
2022/05/06 12:40:03;;;;;;;8.57;6.87;;;23.40;82.90;;;;;;4954371;29;20412;-67
2022/05/06 12:42:29;;;;;;;9.10;6.97;;;22.80;83.70;;;;;;4954645;29;20990;-68
2022/05/06 12:44:54;;;;;;;8.07;7.47;;;22.40;83.90;;;;;;4937386;29;20501;-68
2022/05/06 12:50:09;;;;;;;9.10;6.80;;;21.70;86.30;;;;;;4954345;29;20187;-68
2022/05/06 12:52:35;;;;;;;8.17;7.17;;;21.70;87.30;;;;;;4954561;29;20416;-67
2022/05/06 12:55:01;;;;;;;10.37;7.27;;;21.70;87.30;;;;;;4954653;29;21078;-68
2022/05/06 12:57:28;;;;;;;7.73;7.20;;;21.50;86.90;;;;;;4954319;28;20467;-69
2022/05/06 12:59:53;;;;;;;9.00;8.17;;;21.30;88.60;;;;;;4954209;29;20420;-66
2022/05/06 13:02:19;;;;;;;9.53;8.63;;;21.40;86.50;;;;;;4954342;29;20417;-68
2022/05/06 13:04:44;;;;;;;9.60;7.20;;;21.40;87.40;;;;;;4954289;29;20173;-70
2022/05/06 13:07:10;;;;;;;7.17;6.57;;;21.30;87.80;;;;;;4954307;28;20175;-67
2022/05/06 13:09:36;;;;;;;8.87;7.27;;;21.20;88.40;;;;;;4953903;28;20267;-70
2022/05/06 13:12:02;;;;;;;8.83;7.23;;;21.00;88.20;;;;;;4954186;29;20176;-70
2022/05/06 13:14:27;;;;;;;8.17;7.47;;;21.00;88.70;;;;;;4954163;28;20428;-68
2022/05/06 13:16:53;;;;;;;7.63;7.13;;;20.70;88.80;;;;;;4954294;29;20188;-70
2022/05/06 13:19:19;;;;;;;7.70;6.93;;;21.00;88.40;;;;;;4953648;28;20694;-71